sensor_id;sensor_type;location;lat;lon;timestamp;pressure;altitude;pressure_sealevel;temperature;humidity
41898;BME280;27576;53.366;-1.498;2024-03-07T00:00:04;101031.16;;;4.23;100.00
41898;BME280;27576;53.366;-1.498;2024-03-07T00:02:32;101039.00;;;4.26;100.00
41898;BME280;27576;53.366;-1.498;2024-03-07T00:04:59;101011.75;;;4.10;100.00
41898;BME280;27576;53.366;-1.498;2024-03-07T00:07:24;101017.75;;;4.10;100.00
41898;BME280;27576;53.366;-1.498;2024-03-07T00:09:49;101040.69;;;4.25;100.00
41898;BME280;27576;53.366;-1.498;2024-03-07T00:12:16;101046.78;;;4.27;100.00
41898;BME280;27576;53.366;-1.498;2024-03-07T00:14:41;101029.19;;;4.17;100.00
41898;BME280;27576;53.366;-1.498;2024-03-07T00:17:07;101012.25;;;4.03;100.00
41898;BME280;27576;53.366;-1.498;2024-03-07T00:19:32;101037.81;;;4.19;100.00
41898;BME280;27576;53.366;-1.498;2024-03-07T00:21:57;101045.03;;;4.26;100.00
41898;BME280;27576;53.366;-1.498;2024-03-07T00:24:23;101042.50;;;4.28;100.00
41898;BME280;27576;53.366;-1.498;2024-03-07T00:26:49;101032.53;;;4.16;100.00
41898;BME280;27576;53.366;-1.498;2024-03-07T00:29:19;101007.94;;;4.02;100.00
41898;BME280;27576;53.366;-1.498;2024-03-07T00:31:48;101061.34;;;4.28;100.00
41898;BME280;27576;53.366;-1.498;2024-03-07T00:34:14;101058.72;;;4.27;100.00
41898;BME280;27576;53.366;-1.498;2024-03-07T00:36:44;101025.38;;;4.09;100.00
41898;BME280;27576;53.366;-1.498;2024-03-07T00:39:09;101065.47;;;4.25;100.00
41898;BME280;27576;53.366;-1.498;2024-03-07T00:41:40;101062.31;;;4.30;100.00
41898;BME280;27576;53.366;-1.498;2024-03-07T00:44:09;101035.03;;;4.14;100.00
41898;BME280;27576;53.366;-1.498;2024-03-07T00:46:37;101052.88;;;4.29;100.00
41898;BME280;27576;53.366;-1.498;2024-03-07T00:49:04;101067.22;;;4.43;100.00
41898;BME280;27576;53.366;-1.498;2024-03-07T00:51:30;101026.09;;;4.24;100.00
41898;BME280;27576;53.366;-1.498;2024-03-07T00:53:55;101037.75;;;4.35;100.00
41898;BME280;27576;53.366;-1.498;2024-03-07T00:56:21;101055.78;;;4.55;100.00
41898;BME280;27576;53.366;-1.498;2024-03-07T00:58:51;101065.41;;;4.59;100.00
41898;BME280;27576;53.366;-1.498;2024-03-07T01:01:18;101067.28;;;4.63;100.00
41898;BME280;27576;53.366;-1.498;2024-03-07T01:03:46;101014.97;;;4.41;100.00
41898;BME280;27576;53.366;-1.498;2024-03-07T01:06:12;101014.97;;;4.41;100.00
41898;BME280;27576;53.366;-1.498;2024-03-07T01:08:38;101060.03;;;4.72;100.00
41898;BME280;27576;53.366;-1.498;2024-03-07T01:11:04;101040.69;;;4.61;100.00
41898;BME280;27576;53.366;-1.498;2024-03-07T01:13:43;101030.28;;;4.58;100.00
41898;BME280;27576;53.366;-1.498;2024-03-07T01:16:09;101056.06;;;4.79;100.00
41898;BME280;27576;53.366;-1.498;2024-03-07T01:18:35;101028.94;;;4.66;100.00
41898;BME280;27576;53.366;-1.498;2024-03-07T01:21:01;101040.38;;;4.73;100.00
41898;BME280;27576;53.366;-1.498;2024-03-07T01:23:26;101036.84;;;4.71;100.00
41898;BME280;27576;53.366;-1.498;2024-03-07T01:25:55;101042.34;;;4.78;100.00
41898;BME280;27576;53.366;-1.498;2024-03-07T01:28:24;101050.50;;;4.87;100.00
41898;BME280;27576;53.366;-1.498;2024-03-07T01:30:50;101037.56;;;4.86;100.00
41898;BME280;27576;53.366;-1.498;2024-03-07T01:33:16;101027.59;;;4.74;100.00
41898;BME280;27576;53.366;-1.498;2024-03-07T01:35:41;101030.47;;;4.80;100.00
41898;BME280;27576;53.366;-1.498;2024-03-07T01:38:06;101054.19;;;4.94;100.00
41898;BME280;27576;53.366;-1.498;2024-03-07T01:40:34;101056.84;;;4.96;100.00
41898;BME280;27576;53.366;-1.498;2024-03-07T01:43:01;101044.53;;;4.88;100.00
41898;BME280;27576;53.366;-1.498;2024-03-07T01:45:26;101049.22;;;4.97;100.00
41898;BME280;27576;53.366;-1.498;2024-03-07T01:47:52;101017.63;;;4.80;100.00
41898;BME280;27576;53.366;-1.498;2024-03-07T01:50:17;101055.38;;;5.01;100.00
41898;BME280;27576;53.366;-1.498;2024-03-07T01:52:44;101032.50;;;4.87;100.00
41898;BME280;27576;53.366;-1.498;2024-03-07T01:55:11;101050.22;;;5.01;100.00
41898;BME280;27576;53.366;-1.498;2024-03-07T01:57:38;101009.94;;;4.80;100.00
41898;BME280;27576;53.366;-1.498;2024-03-07T02:00:05;101050.38;;;5.04;100.00
41898;BME280;27576;53.366;-1.498;2024-03-07T02:02:34;101013.56;;;4.85;100.00
41898;BME280;27576;53.366;-1.498;2024-03-07T02:05:00;101037.25;;;4.98;100.00
41898;BME280;27576;53.366;-1.498;2024-03-07T02:07:26;101040.78;;;5.00;100.00
41898;BME280;27576;53.366;-1.498;2024-03-07T02:09:59;101056.38;;;5.04;100.00
41898;BME280;27576;53.366;-1.498;2024-03-07T02:12:25;101006.41;;;4.78;100.00
41898;BME280;27576;53.366;-1.498;2024-03-07T02:14:51;101046.84;;;5.02;100.00
41898;BME280;27576;53.366;-1.498;2024-03-07T02:17:16;101030.88;;;4.89;100.00
41898;BME280;27576;53.366;-1.498;2024-03-07T02:19:41;101025.00;;;4.92;100.00
41898;BME280;27576;53.366;-1.498;2024-03-07T02:22:07;101063.28;;;5.05;100.00
41898;BME280;27576;53.366;-1.498;2024-03-07T02:24:32;101039.81;;;4.98;100.00
41898;BME280;27576;53.366;-1.498;2024-03-07T02:26:59;101031.75;;;4.90;100.00
41898;BME280;27576;53.366;-1.498;2024-03-07T02:29:24;101059.69;;;5.02;100.00
41898;BME280;27576;53.366;-1.498;2024-03-07T02:31:50;101055.63;;;5.07;100.00
41898;BME280;27576;53.366;-1.498;2024-03-07T02:34:16;101030.94;;;4.91;100.00
41898;BME280;27576;53.366;-1.498;2024-03-07T02:36:42;101044.38;;;5.03;100.00
41898;BME280;27576;53.366;-1.498;2024-03-07T02:39:07;101034.66;;;4.98;100.00
41898;BME280;27576;53.366;-1.498;2024-03-07T02:41:34;100994.38;;;4.77;100.00
41898;BME280;27576;53.366;-1.498;2024-03-07T02:44:00;101032.91;;;4.97;100.00
41898;BME280;27576;53.366;-1.498;2024-03-07T02:46:29;101038.94;;;4.97;100.00
41898;BME280;27576;53.366;-1.498;2024-03-07T02:48:54;101014.44;;;4.86;100.00
41898;BME280;27576;53.366;-1.498;2024-03-07T02:51:19;101050.38;;;5.04;100.00
41898;BME280;27576;53.366;-1.498;2024-03-07T02:53:45;101018.41;;;4.79;100.00
41898;BME280;27576;53.366;-1.498;2024-03-07T02:56:11;101039.13;;;5.02;100.00
41898;BME280;27576;53.366;-1.498;2024-03-07T02:58:37;101018.41;;;4.79;100.00
41898;BME280;27576;53.366;-1.498;2024-03-07T03:01:02;101037.75;;;4.90;100.00
41898;BME280;27576;53.366;-1.498;2024-03-07T03:03:29;101049.16;;;4.96;100.00
41898;BME280;27576;53.366;-1.498;2024-03-07T03:05:58;101044.69;;;4.91;100.00
41898;BME280;27576;53.366;-1.498;2024-03-07T03:08:24;101008.75;;;4.74;100.00
41898;BME280;27576;53.366;-1.498;2024-03-07T03:10:49;101043.78;;;4.91;100.00
41898;BME280;27576;53.366;-1.498;2024-03-07T03:13:17;101010.59;;;4.76;100.00
41898;BME280;27576;53.366;-1.498;2024-03-07T03:15:42;101006.19;;;4.74;100.00
41898;BME280;27576;53.366;-1.498;2024-03-07T03:18:08;101003.69;;;4.75;100.00
41898;BME280;27576;53.366;-1.498;2024-03-07T03:20:34;101016.16;;;4.85;100.00
41898;BME280;27576;53.366;-1.498;2024-03-07T03:23:01;101036.31;;;4.96;100.00
41898;BME280;27576;53.366;-1.498;2024-03-07T03:25:29;101003.91;;;4.80;100.00
41898;BME280;27576;53.366;-1.498;2024-03-07T03:27:55;101016.97;;;4.84;100.00
41898;BME280;27576;53.366;-1.498;2024-03-07T03:30:20;101038.94;;;4.97;100.00
41898;BME280;27576;53.366;-1.498;2024-03-07T03:32:47;101013.63;;;4.87;100.00
41898;BME280;27576;53.366;-1.498;2024-03-07T03:35:14;101036.41;;;4.99;100.00
41898;BME280;27576;53.366;-1.498;2024-03-07T03:37:44;101028.81;;;5.00;100.00
41898;BME280;27576;53.366;-1.498;2024-03-07T03:40:10;101001.41;;;4.81;100.00
41898;BME280;27576;53.366;-1.498;2024-03-07T03:42:40;101038.25;;;5.01;100.00
41898;BME280;27576;53.366;-1.498;2024-03-07T03:45:06;101012.91;;;4.89;100.00
41898;BME280;27576;53.366;-1.498;2024-03-07T03:47:36;101002.44;;;4.85;100.00
41898;BME280;27576;53.366;-1.498;2024-03-07T03:50:06;101034.75;;;4.99;100.00
41898;BME280;27576;53.366;-1.498;2024-03-07T03:52:33;101026.81;;;4.95;100.00
41898;BME280;27576;53.366;-1.498;2024-03-07T03:55:01;101029.28;;;4.91;100.00
41898;BME280;27576;53.366;-1.498;2024-03-07T03:57:28;101027.50;;;4.90;100.00
41898;BME280;27576;53.366;-1.498;2024-03-07T03:59:55;101001.94;;;4.74;100.00
41898;BME280;27576;53.366;-1.498;2024-03-07T04:02:21;101013.44;;;4.82;100.00
41898;BME280;27576;53.366;-1.498;2024-03-07T04:04:50;101008.03;;;4.76;100.00
41898;BME280;27576;53.366;-1.498;2024-03-07T04:07:19;101026.56;;;4.88;100.00
41898;BME280;27576;53.366;-1.498;2024-03-07T04:09:45;101011.81;;;4.84;100.00
41898;BME280;27576;53.366;-1.498;2024-03-07T04:12:11;101004.84;;;4.82;100.00
41898;BME280;27576;53.366;-1.498;2024-03-07T04:14:40;101032.78;;;4.93;100.00
41898;BME280;27576;53.366;-1.498;2024-03-07T04:17:09;101021.34;;;4.87;100.00
41898;BME280;27576;53.366;-1.498;2024-03-07T04:19:38;101011.06;;;4.87;100.00
41898;BME280;27576;53.366;-1.498;2024-03-07T04:22:04;101024.94;;;4.90;100.00
41898;BME280;27576;53.366;-1.498;2024-03-07T04:24:31;101008.28;;;4.82;100.00
41898;BME280;27576;53.366;-1.498;2024-03-07T04:27:04;101009.25;;;4.84;100.00
41898;BME280;27576;53.366;-1.498;2024-03-07T04:29:33;101034.63;;;4.96;100.00
41898;BME280;27576;53.366;-1.498;2024-03-07T04:32:00;101046.59;;;4.96;100.00
41898;BME280;27576;53.366;-1.498;2024-03-07T04:34:29;101040.53;;;4.95;100.00
41898;BME280;27576;53.366;-1.498;2024-03-07T04:36:57;101018.72;;;4.85;100.00
41898;BME280;27576;53.366;-1.498;2024-03-07T04:39:24;101006.41;;;4.78;100.00
41898;BME280;27576;53.366;-1.498;2024-03-07T04:42:06;101037.97;;;4.95;100.00
41898;BME280;27576;53.366;-1.498;2024-03-07T04:44:32;101021.94;;;4.81;100.00
41898;BME280;27576;53.366;-1.498;2024-03-07T04:46:59;101061.69;;;4.89;100.00
41898;BME280;27576;53.366;-1.498;2024-03-07T04:49:27;101042.91;;;4.90;100.00
41898;BME280;27576;53.366;-1.498;2024-03-07T04:51:54;101022.31;;;4.71;100.00
41898;BME280;27576;53.366;-1.498;2024-03-07T04:54:21;101039.78;;;4.78;100.00
41898;BME280;27576;53.366;-1.498;2024-03-07T04:56:47;101050.41;;;4.86;100.00
41898;BME280;27576;53.366;-1.498;2024-03-07T04:59:13;101041.19;;;4.72;100.00
41898;BME280;27576;53.366;-1.498;2024-03-07T05:01:39;101032.22;;;4.63;100.00
41898;BME280;27576;53.366;-1.498;2024-03-07T05:04:08;101008.50;;;4.50;100.00
41898;BME280;27576;53.366;-1.498;2024-03-07T05:06:33;101013.69;;;4.51;100.00
41898;BME280;27576;53.366;-1.498;2024-03-07T05:09:03;101032.53;;;4.52;100.00
41898;BME280;27576;53.366;-1.498;2024-03-07T05:11:32;101017.69;;;4.45;100.00
41898;BME280;27576;53.366;-1.498;2024-03-07T05:13:58;101050.00;;;4.59;100.00
41898;BME280;27576;53.366;-1.498;2024-03-07T05:16:24;101024.47;;;4.44;100.00
41898;BME280;27576;53.366;-1.498;2024-03-07T05:18:50;101057.91;;;4.63;100.00
41898;BME280;27576;53.366;-1.498;2024-03-07T05:21:16;101046.34;;;4.54;100.00
41898;BME280;27576;53.366;-1.498;2024-03-07T05:24:00;101062.31;;;4.66;100.00
41898;BME280;27576;53.366;-1.498;2024-03-07T05:26:29;101020.09;;;4.41;100.00
41898;BME280;27576;53.366;-1.498;2024-03-07T05:29:07;101061.44;;;4.65;100.00
41898;BME280;27576;53.366;-1.498;2024-03-07T05:31:37;101068.31;;;4.66;100.00
41898;BME280;27576;53.366;-1.498;2024-03-07T05:34:03;101051.63;;;4.57;100.00
41898;BME280;27576;53.366;-1.498;2024-03-07T05:36:32;101077.72;;;4.66;100.00
41898;BME280;27576;53.366;-1.498;2024-03-07T05:38:58;101081.00;;;4.63;100.00
41898;BME280;27576;53.366;-1.498;2024-03-07T05:41:24;101082.69;;;4.63;100.00
41898;BME280;27576;53.366;-1.498;2024-03-07T05:43:53;101081.81;;;4.62;100.00
41898;BME280;27576;53.366;-1.498;2024-03-07T05:46:19;101058.19;;;4.52;100.00
41898;BME280;27576;53.366;-1.498;2024-03-07T05:48:45;101070.38;;;4.56;100.00
41898;BME280;27576;53.366;-1.498;2024-03-07T05:51:15;101080.13;;;4.63;100.00
41898;BME280;27576;53.366;-1.498;2024-03-07T05:53:40;101029.28;;;4.36;100.00
41898;BME280;27576;53.366;-1.498;2024-03-07T05:56:08;101057.25;;;4.50;100.00
41898;BME280;27576;53.366;-1.498;2024-03-07T05:58:34;101037.03;;;4.38;100.00
41898;BME280;27576;53.366;-1.498;2024-03-07T06:01:00;101058.81;;;4.46;100.00
41898;BME280;27576;53.366;-1.498;2024-03-07T06:03:25;101044.13;;;4.43;100.00
41898;BME280;27576;53.366;-1.498;2024-03-07T06:05:51;101064.38;;;4.55;100.00
41898;BME280;27576;53.366;-1.498;2024-03-07T06:08:18;101074.22;;;4.64;100.00
41898;BME280;27576;53.366;-1.498;2024-03-07T06:10:44;101070.47;;;4.57;100.00
41898;BME280;27576;53.366;-1.498;2024-03-07T06:13:14;101080.28;;;4.66;100.00
41898;BME280;27576;53.366;-1.498;2024-03-07T06:15:43;101051.16;;;4.48;100.00
41898;BME280;27576;53.366;-1.498;2024-03-07T06:18:08;101081.97;;;4.65;100.00
41898;BME280;27576;53.366;-1.498;2024-03-07T06:20:36;101060.78;;;4.52;100.00
41898;BME280;27576;53.366;-1.498;2024-03-07T06:23:02;101067.03;;;4.57;100.00
41898;BME280;27576;53.366;-1.498;2024-03-07T06:25:32;101073.31;;;4.63;100.00
41898;BME280;27576;53.366;-1.498;2024-03-07T06:28:16;101041.50;;;4.42;100.00
41898;BME280;27576;53.366;-1.498;2024-03-07T06:30:46;101071.34;;;4.58;100.00
41898;BME280;27576;53.366;-1.498;2024-03-07T06:33:14;101058.88;;;4.48;100.00
41898;BME280;27576;53.366;-1.498;2024-03-07T06:35:41;101092.25;;;4.65;100.00
41898;BME280;27576;53.366;-1.498;2024-03-07T06:38:08;101047.44;;;4.41;100.00
41898;BME280;27576;53.366;-1.498;2024-03-07T06:40:35;101085.34;;;4.64;100.00
41898;BME280;27576;53.366;-1.498;2024-03-07T06:43:01;101074.78;;;4.58;100.00
41898;BME280;27576;53.366;-1.498;2024-03-07T06:45:31;101076.16;;;4.52;100.00
41898;BME280;27576;53.366;-1.498;2024-03-07T06:47:57;101053.47;;;4.41;100.00
41898;BME280;27576;53.366;-1.498;2024-03-07T06:50:22;101082.56;;;4.60;100.00
41898;BME280;27576;53.366;-1.498;2024-03-07T06:52:48;101083.50;;;4.62;100.00
41898;BME280;27576;53.366;-1.498;2024-03-07T06:55:18;101086.94;;;4.62;100.00
41898;BME280;27576;53.366;-1.498;2024-03-07T06:57:44;101050.75;;;4.38;100.00
41898;BME280;27576;53.366;-1.498;2024-03-07T07:00:11;101063.78;;;4.43;100.00
41898;BME280;27576;53.366;-1.498;2024-03-07T07:02:40;101085.16;;;4.60;100.00
41898;BME280;27576;53.366;-1.498;2024-03-07T07:05:08;101076.16;;;4.52;100.00
41898;BME280;27576;53.366;-1.498;2024-03-07T07:07:43;101057.50;;;4.36;100.00
41898;BME280;27576;53.366;-1.498;2024-03-07T07:10:08;101085.66;;;4.53;100.00
41898;BME280;27576;53.366;-1.498;2024-03-07T07:12:46;101081.69;;;4.41;100.00
41898;BME280;27576;53.366;-1.498;2024-03-07T07:15:14;101094.06;;;4.50;100.00
41898;BME280;27576;53.366;-1.498;2024-03-07T07:17:41;101067.44;;;4.30;100.00
41898;BME280;27576;53.366;-1.498;2024-03-07T07:20:10;101059.38;;;4.23;100.00
41898;BME280;27576;53.366;-1.498;2024-03-07T07:22:39;101091.44;;;4.49;100.00
41898;BME280;27576;53.366;-1.498;2024-03-07T07:25:05;101057.03;;;4.27;100.00
41898;BME280;27576;53.366;-1.498;2024-03-07T07:27:34;101076.41;;;4.38;100.00
41898;BME280;27576;53.366;-1.498;2024-03-07T07:29:59;101095.09;;;4.54;100.00
41898;BME280;27576;53.366;-1.498;2024-03-07T07:32:24;101078.66;;;4.50;100.00
41898;BME280;27576;53.366;-1.498;2024-03-07T07:34:50;101087.34;;;4.52;100.00
41898;BME280;27576;53.366;-1.498;2024-03-07T07:37:15;101048.53;;;4.28;100.00
41898;BME280;27576;53.366;-1.498;2024-03-07T07:39:40;101079.34;;;4.46;100.00
41898;BME280;27576;53.366;-1.498;2024-03-07T07:42:06;101075.78;;;4.44;100.00
41898;BME280;27576;53.366;-1.498;2024-03-07T07:44:31;101083.88;;;4.52;100.00
41898;BME280;27576;53.366;-1.498;2024-03-07T07:46:57;101089.31;;;4.58;100.00
41898;BME280;27576;53.366;-1.498;2024-03-07T07:49:23;101071.69;;;4.48;100.00
41898;BME280;27576;53.366;-1.498;2024-03-07T07:51:48;101055.06;;;4.39;100.00
41898;BME280;27576;53.366;-1.498;2024-03-07T07:54:14;101097.97;;;4.60;100.00
41898;BME280;27576;53.366;-1.498;2024-03-07T07:56:39;101088.59;;;4.60;100.00
41898;BME280;27576;53.366;-1.498;2024-03-07T07:59:05;101082.13;;;4.51;100.00
41898;BME280;27576;53.366;-1.498;2024-03-07T08:01:32;101070.03;;;4.48;100.00
41898;BME280;27576;53.366;-1.498;2024-03-07T08:03:59;101062.84;;;4.41;100.00
41898;BME280;27576;53.366;-1.498;2024-03-07T08:06:24;101090.13;;;4.57;100.00
41898;BME280;27576;53.366;-1.498;2024-03-07T08:08:49;101080.94;;;4.44;100.00
41898;BME280;27576;53.366;-1.498;2024-03-07T08:11:15;101034.31;;;4.17;100.00
41898;BME280;27576;53.366;-1.498;2024-03-07T08:13:40;101088.56;;;4.42;100.00
41898;BME280;27576;53.366;-1.498;2024-03-07T08:16:06;101094.72;;;4.46;100.00
41898;BME280;27576;53.366;-1.498;2024-03-07T08:18:32;101067.38;;;4.29;100.00
41898;BME280;27576;53.366;-1.498;2024-03-07T08:20:57;101093.03;;;4.47;100.00
41898;BME280;27576;53.366;-1.498;2024-03-07T08:23:23;101078.03;;;4.36;100.00
41898;BME280;27576;53.366;-1.498;2024-03-07T08:25:51;101087.91;;;4.47;100.00
41898;BME280;27576;53.366;-1.498;2024-03-07T08:28:17;101041.22;;;4.18;100.00
41898;BME280;27576;53.366;-1.498;2024-03-07T08:30:43;101079.28;;;4.45;100.00
41898;BME280;27576;53.366;-1.498;2024-03-07T08:33:10;101083.81;;;4.50;100.00
41898;BME280;27576;53.366;-1.498;2024-03-07T08:35:35;101085.50;;;4.50;100.00
41898;BME280;27576;53.366;-1.498;2024-03-07T08:38:01;101086.31;;;4.49;100.00
41898;BME280;27576;53.366;-1.498;2024-03-07T08:40:28;101052.00;;;4.29;100.00
41898;BME280;27576;53.366;-1.498;2024-03-07T08:42:58;101074.88;;;4.42;100.00
41898;BME280;27576;53.366;-1.498;2024-03-07T08:45:24;101053.53;;;4.25;100.00
41898;BME280;27576;53.366;-1.498;2024-03-07T08:47:52;101065.19;;;4.36;100.00
41898;BME280;27576;53.366;-1.498;2024-03-07T08:50:19;101076.56;;;4.41;100.00
41898;BME280;27576;53.366;-1.498;2024-03-07T08:52:46;101062.31;;;4.30;100.00
41898;BME280;27576;53.366;-1.498;2024-03-07T08:55:14;101044.72;;;4.20;100.00
41898;BME280;27576;53.366;-1.498;2024-03-07T08:57:40;101050.97;;;4.25;100.00
41898;BME280;27576;53.366;-1.498;2024-03-07T09:00:06;101068.53;;;4.35;100.00
41898;BME280;27576;53.366;-1.498;2024-03-07T09:02:37;101079.53;;;4.51;100.00
41898;BME280;27576;53.366;-1.498;2024-03-07T09:05:04;101064.66;;;4.43;100.00
41898;BME280;27576;53.366;-1.498;2024-03-07T09:07:29;101087.56;;;4.57;100.00
41898;BME280;27576;53.366;-1.498;2024-03-07T09:09:55;101086.75;;;4.58;100.00
41898;BME280;27576;53.366;-1.498;2024-03-07T09:12:21;101076.69;;;4.62;100.00
41898;BME280;27576;53.366;-1.498;2024-03-07T09:14:46;101081.00;;;4.63;100.00
41898;BME280;27576;53.366;-1.498;2024-03-07T09:17:12;101087.03;;;4.64;100.00
41898;BME280;27576;53.366;-1.498;2024-03-07T09:19:37;101087.09;;;4.65;100.00
41898;BME280;27576;53.366;-1.498;2024-03-07T09:22:03;101079.47;;;4.67;100.00
41898;BME280;27576;53.366;-1.498;2024-03-07T09:24:30;101051.63;;;4.57;100.00
41898;BME280;27576;53.366;-1.498;2024-03-07T09:26:56;101082.03;;;4.67;100.00
41898;BME280;27576;53.366;-1.498;2024-03-07T09:29:22;101083.16;;;4.72;100.00
41898;BME280;27576;53.366;-1.498;2024-03-07T09:31:52;101087.47;;;4.73;100.00
41898;BME280;27576;53.366;-1.498;2024-03-07T09:34:18;101091.63;;;4.71;100.00
41898;BME280;27576;53.366;-1.498;2024-03-07T09:36:45;101082.28;;;4.72;100.00
41898;BME280;27576;53.366;-1.498;2024-03-07T09:39:11;101062.91;;;4.60;100.00
41898;BME280;27576;53.366;-1.498;2024-03-07T09:41:39;101060.00;;;4.53;100.00
41898;BME280;27576;53.366;-1.498;2024-03-07T09:44:05;101090.09;;;4.75;100.00
41898;BME280;27576;53.366;-1.498;2024-03-07T09:46:31;101085.78;;;4.74;100.00
41898;BME280;27576;53.366;-1.498;2024-03-07T09:48:57;101057.84;;;4.62;100.00
41898;BME280;27576;53.366;-1.498;2024-03-07T09:51:24;101072.59;;;4.66;100.00
41898;BME280;27576;53.366;-1.498;2024-03-07T09:53:51;101069.66;;;4.76;100.00
41898;BME280;27576;53.366;-1.498;2024-03-07T09:56:20;101046.91;;;4.66;100.00
41898;BME280;27576;53.366;-1.498;2024-03-07T09:58:50;101057.53;;;4.74;100.00
41898;BME280;27576;53.366;-1.498;2024-03-07T10:01:19;101070.78;;;4.83;100.00
41898;BME280;27576;53.366;-1.498;2024-03-07T10:03:47;101067.34;;;4.82;100.00
41898;BME280;27576;53.366;-1.498;2024-03-07T10:06:13;101081.72;;;4.97;100.00
41898;BME280;27576;53.366;-1.498;2024-03-07T10:08:41;101086.03;;;4.98;100.00
41898;BME280;27576;53.366;-1.498;2024-03-07T10:11:07;101031.81;;;4.72;100.00
41898;BME280;27576;53.366;-1.498;2024-03-07T10:13:34;101088.59;;;4.98;100.00
41898;BME280;27576;53.366;-1.498;2024-03-07T10:16:01;101059.78;;;4.85;100.00
41898;BME280;27576;53.366;-1.498;2024-03-07T10:18:27;101075.41;;;4.90;100.00
41898;BME280;27576;53.366;-1.498;2024-03-07T10:20:56;101041.63;;;4.81;100.00
41898;BME280;27576;53.366;-1.498;2024-03-07T10:23:24;101003.06;;;4.61;100.00
41898;BME280;27576;53.366;-1.498;2024-03-07T10:25:50;101065.78;;;5.04;100.00
41898;BME280;27576;53.366;-1.498;2024-03-07T10:28:16;101018.34;;;4.78;100.00
41898;BME280;27576;53.366;-1.498;2024-03-07T10:30:43;101064.97;;;5.05;100.00
41898;BME280;27576;53.366;-1.498;2024-03-07T10:33:12;101040.22;;;4.87;100.00
41898;BME280;27576;53.366;-1.498;2024-03-07T10:35:38;101063.34;;;5.07;100.00
41898;BME280;27576;53.366;-1.498;2024-03-07T10:38:03;101060.66;;;5.04;100.00
41898;BME280;27576;53.366;-1.498;2024-03-07T10:40:32;101064.28;;;5.09;100.00
41898;BME280;27576;53.366;-1.498;2024-03-07T10:42:58;101058.34;;;5.10;100.00
41898;BME280;27576;53.366;-1.498;2024-03-07T10:45:33;101044.28;;;5.02;100.00
41898;BME280;27576;53.366;-1.498;2024-03-07T10:48:03;101053.28;;;5.11;100.00
41898;BME280;27576;53.366;-1.498;2024-03-07T10:50:41;101056.78;;;5.13;100.00
41898;BME280;27576;53.366;-1.498;2024-03-07T10:53:24;101029.63;;;4.99;100.00
41898;BME280;27576;53.366;-1.498;2024-03-07T10:59:21;101050.09;;;5.17;100.00
41898;BME280;27576;53.366;-1.498;2024-03-07T11:04:33;101000.34;;;4.96;100.00
41898;BME280;27576;53.366;-1.498;2024-03-07T11:06:59;101049.44;;;5.21;100.00
41898;BME280;27576;53.366;-1.498;2024-03-07T11:09:26;101027.72;;;5.14;100.00
41898;BME280;27576;53.366;-1.498;2024-03-07T11:11:59;101046.31;;;5.28;100.00
41898;BME280;27576;53.366;-1.498;2024-03-07T11:14:26;101027.94;;;5.19;100.00
41898;BME280;27576;53.366;-1.498;2024-03-07T11:16:53;101009.72;;;5.14;100.00
41898;BME280;27576;53.366;-1.498;2024-03-07T11:19:27;101038.22;;;5.38;100.00
41898;BME280;27576;53.366;-1.498;2024-03-07T11:21:54;101010.41;;;5.30;100.00
41898;BME280;27576;53.366;-1.498;2024-03-07T11:24:28;101004.94;;;5.22;100.00
41898;BME280;27576;53.366;-1.498;2024-03-07T11:26:56;101022.91;;;5.41;100.00
41898;BME280;27576;53.366;-1.498;2024-03-07T11:29:42;101043.66;;;5.46;100.00
41898;BME280;27576;53.366;-1.498;2024-03-07T11:32:14;101023.00;;;5.43;100.00
41898;BME280;27576;53.366;-1.498;2024-03-07T11:34:41;101032.59;;;5.47;100.00
41898;BME280;27576;53.366;-1.498;2024-03-07T11:37:08;100976.56;;;5.19;100.00
41898;BME280;27576;53.366;-1.498;2024-03-07T11:39:46;101019.66;;;5.46;100.00
41898;BME280;27576;53.366;-1.498;2024-03-07T11:42:25;101015.28;;;5.43;100.00
41898;BME280;27576;53.366;-1.498;2024-03-07T11:44:52;101006.63;;;5.41;100.00
41898;BME280;27576;53.366;-1.498;2024-03-07T11:47:17;100994.53;;;5.38;100.00
41898;BME280;27576;53.366;-1.498;2024-03-07T11:49:44;100995.59;;;5.44;100.00
41898;BME280;27576;53.366;-1.498;2024-03-07T11:52:14;100972.75;;;5.30;100.00
41898;BME280;27576;53.366;-1.498;2024-03-07T11:54:42;100989.41;;;5.38;100.00
41898;BME280;27576;53.366;-1.498;2024-03-07T11:57:20;100972.00;;;5.33;100.00
41898;BME280;27576;53.366;-1.498;2024-03-07T11:59:52;100994.91;;;5.48;100.00
41898;BME280;27576;53.366;-1.498;2024-03-07T12:02:18;100966.03;;;5.34;100.00
41898;BME280;27576;53.366;-1.498;2024-03-07T12:04:47;100960.03;;;5.33;100.00
41898;BME280;27576;53.366;-1.498;2024-03-07T12:07:13;100991.72;;;5.53;100.00
41898;BME280;27576;53.366;-1.498;2024-03-07T12:09:43;100940.00;;;5.26;100.00
41898;BME280;27576;53.366;-1.498;2024-03-07T12:12:11;100974.69;;;5.55;100.00
41898;BME280;27576;53.366;-1.498;2024-03-07T12:14:37;100982.16;;;5.70;100.00
41898;BME280;27576;53.366;-1.498;2024-03-07T12:17:04;100950.13;;;5.62;100.00
41898;BME280;27576;53.366;-1.498;2024-03-07T12:19:34;100954.75;;;5.71;100.00
41898;BME280;27576;53.366;-1.498;2024-03-07T12:22:01;100912.09;;;5.55;100.00
41898;BME280;27576;53.366;-1.498;2024-03-07T12:24:27;100937.81;;;5.76;100.00
41898;BME280;27576;53.366;-1.498;2024-03-07T12:26:52;100928.41;;;5.76;100.00
41898;BME280;27576;53.366;-1.498;2024-03-07T12:29:25;100934.16;;;5.91;100.00
41898;BME280;27576;53.366;-1.498;2024-03-07T12:31:51;100952.38;;;6.17;100.00
41898;BME280;27576;53.366;-1.498;2024-03-07T12:34:16;100944.00;;;6.23;100.00
41898;BME280;27576;53.366;-1.498;2024-03-07T12:36:42;100944.28;;;6.30;100.00
41898;BME280;27576;53.366;-1.498;2024-03-07T12:39:24;100933.44;;;6.37;100.00
41898;BME280;27576;53.366;-1.498;2024-03-07T12:41:51;100924.22;;;6.44;100.00
41898;BME280;27576;53.366;-1.498;2024-03-07T12:44:20;100922.75;;;6.51;100.00
41898;BME280;27576;53.366;-1.498;2024-03-07T12:46:47;100908.31;;;6.54;100.00